x

Halibut Bank (46146) Wave Buoy

10:00pm - Tue 3rd Mar 2015 All times are PST. -8 hours from GMT.

  • Sig Wave height 0.3ft
  • Peak Period 3s
  • Wind
    4mph
  • Sea Temp 46°f
  • Air Temp 43°f
  • Sea Pressure 1024.8mb
  • Halibut Bank
  • Halibut Bank

More Historic Weather Station data

Upgrade to MSW Pro to gain access to the past 30 days of data for over 8000 Wavebouys and Weather Stations around the globe.

Join Pro

Comparision Forecast

View Surf forecast
   
Tue 03/03 10:00pm 0.3ft 3s 4
mph
1024.8mb 46f 43f
9:00pm 0.3ft 4s 4
mph
1024.4mb 47f 44f
8:00pm 0.3ft 3s  -  mph 1024.1mb 47f 45f
7:00pm 0.3ft 4s  -  2 mph 1024mb 47f 45f
6:00pm 0.3ft 6s 2
mph
1023.7mb 47f 45f
5:00pm 0.7ft 4s 2
mph
1023.8mb 47f 47f
4:00pm 0.7ft 4s 4 7 mph 1023.8mb 47f 46f
3:00pm 0.7ft 4s 4 7 mph 1024.3mb 47f 46f
2:00pm 0.7ft 4s 4 7 mph 1024.7mb 47f 45f
1:00pm 1ft 4s 7 9 mph 1025.1mb 47f 44f
12:00pm 1.3ft 4s 4 9 mph 1025.4mb 47f 44f
11:00am 1ft 5s 4 7 mph 1025.8mb 47f 44f
10:00am 1.3ft 4s 4
mph
1026mb 47f 44f
9:00am 1.6ft 5s 4 9 mph 1025.9mb 47f 44f
8:00am 1.6ft 5s 2 4 mph 1025.6mb 47f 44f
7:00am 1.3ft 3s 11 13 mph 1025mb 47f 44f
6:00am 1.3ft 3s 13
mph
1024.8mb 47f 44f
5:00am 1ft 3s 11 13 mph 1024.7mb 47f 44f
4:00am 0.7ft 2s 7 9 mph 1024.5mb 47f 45f
3:00am 0.7ft 2s 2 4 mph 1024.3mb 47f 45f
2:00am 0.7ft 2s 4 9 mph 1024.3mb 47f 46f
1:00am 0.7ft 3s 4 9 mph 1023.8mb 47f 46f
12:00am 0.7ft 3s 7 9 mph 1023.2mb 47f 45f
Mon 03/02 11:00pm 0.7ft 3s 7
mph
1023mb 47f 48f
10:00pm 1ft 3s 2 4 mph 1022.3mb 47f 47f
9:00pm 1ft 3s 9 11 mph 1021.4mb 47f 49f
8:00pm 1ft 3s 2 4 mph 1020.8mb 47f 48f
7:00pm 1.6ft 4s 7 9 mph 1020mb 47f 48f
6:00pm 1.6ft 4s 9 13 mph 1019.4mb 47f 49f
5:00pm 2ft 4s 11
mph
1018.9mb 47f 48f
4:00pm 2.5ft 4s 11 13 mph 1018.5mb 47f 48f
3:00pm 2ft 4s 16 18 mph 1018.2mb 47f 48f
2:00pm 1.6ft 4s 18 22 mph 1018.3mb 47f 46f
1:00pm 1.6ft 3s 16 18 mph 1018.8mb 47f 44f
12:00pm 1.3ft 3s 13 16 mph 1019.3mb 47f 43f
11:00am 1.3ft 3s 13 16 mph 1019.6mb 47f 43f
10:00am 1.3ft 3s 13 16 mph 1019.7mb 47f 42f
9:00am 1.3ft 3s 13 18 mph 1019.7mb 47f 42f
8:00am 1.6ft 4s 11 13 mph 1019.5mb 47f 42f
7:00am 1.3ft 3s 13 18 mph 1019mb 47f 42f
6:00am 1ft 3s 11 16 mph 1018.6mb 47f 42f
5:00am 1ft 3s 13 18 mph 1018mb 47f 42f
4:00am 1ft 3s 11 13 mph 1017.9mb 46f 42f
3:00am 1ft 3s 11 13 mph 1017.9mb 46f 42f
2:00am 1ft 3s 11 16 mph 1018.2mb 46f 42f
1:00am 1ft 3s 9
mph
1017.9mb 46f 42f
12:00am 0.7ft 3s 9 13 mph 1018mb 46f 42f
Sun 03/01 11:00pm 0.7ft 6s 9
mph
1017.7mb 46f 42f
10:00pm 0.3ft 2s 9 11 mph 1017.8mb 46f 43f
9:00pm 0.7ft 3s 9 11 mph 1017.6mb 47f 42f
8:00pm 0.7ft 3s 9 11 mph 1017.4mb 47f 43f
7:00pm 0.7ft 3s 4 9 mph 1017.6mb 47f 43f
6:00pm 1ft 3s 4 7 mph 1017.4mb 47f 43f
5:00pm 0.7ft 2s 9 11 mph 1017.7mb 47f 43f
4:00pm 0.3ft 2s 9 18 mph 1018.6mb 47f 45f
3:00pm 0.3ft 3s 9 11 mph 1019.3mb 47f 44f
2:00pm 0.3ft 4s 2
mph
1019.8mb 47f 44f
1:00pm 0.3ft 5s  -  mph 1020.5mb 47f 45f
12:00pm 0.3ft 6s 2 4 mph 1021.6mb 47f 44f
11:00am 0.3ft 2s 2
mph
1022.8mb 47f 44f
10:00am 0.3ft 7s 4 7 mph 1023mb 47f 44f
9:00am 0.3ft 4s 2 4 mph 1023.6mb 47f 44f
8:00am 0.3ft 6s 2 4 mph 1023.8mb 47f 43f
7:00am 0.3ft 2s 4
mph
1023.6mb 47f 43f
6:00am 0.3ft 2s 2 4 mph 1023.8mb 47f 43f
5:00am 0.3ft 2s 4 7 mph 1023.9mb 47f 43f
4:00am 0.3ft 2s 4 7 mph 1023.6mb 47f 44f
3:00am 0.3ft 2s 2 4 mph 1023.8mb 47f 44f
2:00am 0.3ft 2s 2 4 mph 1024.1mb 47f 44f
1:00am 0.7ft 3s 7 9 mph 1024.2mb 47f 45f
12:00am 0.3ft 3s 7 9 mph 1024.3mb 47f 45f
Sat 02/28 11:00pm 0.3ft 6s  -  mph 1023.9mb 47f 45f
10:00pm 0.3ft 7s 2 4 mph 1023.9mb 47f 45f
9:00pm 0.3ft 6s 4
mph
1023.9mb 47f 45f
8:00pm 0.3ft 6s 7
mph
1023.6mb 48f 46f
7:00pm 0.3ft 4s 2
mph
1023.4mb 48f 47f
6:00pm 0.3ft 3s 2
mph
1023.5mb 48f 47f
5:00pm 0.7ft 3s  -  mph 1023.4mb 48f 52f
4:00pm 0.7ft 4s 2 4 mph 1023.4mb 49f 49f
2:00pm 0.7ft 4s 2 4 mph 1023.5mb 50f 47f
1:00pm 0.7ft 4s  -  2 mph 1023.9mb 50f 48f
12:00pm 0.7ft 4s  -  2 mph 1024.6mb 50f 47f
11:00am 0.7ft 4s  -  mph 1024.6mb 48f 48f
10:00am 1ft 3s  -  mph 1024.3mb 47f 49f
9:00am 1ft 4s 2
mph
1024.3mb 47f 45f
8:00am 1ft 4s 2
mph
1023.9mb 47f 45f